TimeCST,TemperatureF,Dew PointF,Humidity,Sea Level PressureIn,VisibilityMPH,Wind Direction,Wind SpeedMPH,Gust SpeedMPH,PrecipitationIn,Events,Conditions,WindDirDegrees,DateUTC
12:53 AM,24.1,16.0,71,30.40,10.0,SW,6.9,-,N/A,,Clear,220,2013-01-04 06:53:00
1:53 AM,21.9,15.1,75,30.40,10.0,SW,8.1,-,N/A,,Clear,230,2013-01-04 07:53:00
2:53 AM,25.0,18.0,75,30.39,10.0,WSW,6.9,-,N/A,,Clear,240,2013-01-04 08:53:00
3:53 AM,21.0,16.0,81,30.39,10.0,SW,6.9,-,N/A,,Clear,230,2013-01-04 09:53:00
4:53 AM,19.9,16.0,85,30.39,10.0,SSW,8.1,-,N/A,,Clear,200,2013-01-04 10:53:00
5:53 AM,21.0,16.0,81,30.39,10.0,SW,6.9,-,N/A,,Clear,230,2013-01-04 11:53:00
6:53 AM,21.9,17.1,82,30.40,10.0,SW,6.9,-,N/A,,Mostly Cloudy,230,2013-01-04 12:53:00
7:53 AM,27.0,19.9,75,30.38,10.0,WSW,10.4,-,N/A,,Mostly Cloudy,250,2013-01-04 13:53:00
8:53 AM,26.1,19.9,78,30.41,10.0,SSW,6.9,-,N/A,,Partly Cloudy,210,2013-01-04 14:53:00
9:53 AM,30.9,21.9,69,30.40,10.0,SW,8.1,-,N/A,,Overcast,230,2013-01-04 15:53:00
10:53 AM,32.0,24.1,73,30.40,10.0,SW,9.2,-,N/A,,Overcast,220,2013-01-04 16:53:00
11:53 AM,32.0,24.1,73,30.38,10.0,SW,13.8,-,N/A,,Overcast,230,2013-01-04 17:53:00
12:53 PM,33.1,24.1,70,30.34,10.0,SSW,17.3,-,N/A,,Overcast,210,2013-01-04 18:53:00
1:53 PM,35.1,25.0,67,30.30,10.0,SSW,19.6,-,N/A,,Mostly Cloudy,210,2013-01-04 19:53:00
2:25 PM,35.6,26.6,70,30.24,8.0,South,16.1,-,0.00,Snow,Light Snow,190,2013-01-04 20:25:00
2:53 PM,34.0,25.0,70,30.27,8.0,SSW,16.1,-,0.00,Snow,Light Snow,210,2013-01-04 20:53:00
3:05 PM,33.8,26.6,75,30.22,1.8,SSW,15.0,-,0.00,Snow,Light Snow,210,2013-01-04 21:05:00
3:11 PM,33.8,28.4,81,30.22,1.0,SSW,13.8,-,0.00,Snow,Light Snow,200,2013-01-04 21:11:00
3:18 PM,32.0,28.4,87,30.22,0.8,SSW,13.8,-,0.00,Snow,Light Snow,200,2013-01-04 21:18:00
3:22 PM,33.8,28.4,81,30.22,1.2,SSW,16.1,-,N/A,Snow,Light Snow,200,2013-01-04 21:22:00
3:25 PM,33.8,28.4,81,30.22,3.0,SSW,15.0,-,N/A,Snow,Light Snow,210,2013-01-04 21:25:00
3:53 PM,34.0,27.0,75,30.27,10.0,SSW,13.8,-,0.00,,Overcast,210,2013-01-04 21:53:00
4:35 PM,33.8,26.6,75,30.20,10.0,SSW,15.0,-,N/A,,Overcast,200,2013-01-04 22:35:00
4:53 PM,34.0,26.1,73,30.26,10.0,South,15.0,-,N/A,,Overcast,180,2013-01-04 22:53:00
5:03 PM,33.8,26.6,75,30.20,10.0,South,12.7,-,N/A,,Overcast,190,2013-01-04 23:03:00
5:20 PM,33.8,26.6,75,30.20,10.0,SSW,13.8,-,N/A,,Overcast,200,2013-01-04 23:20:00
5:48 PM,33.8,26.6,75,30.19,8.0,SSW,9.2,-,0.00,Snow,Light Snow,200,2013-01-04 23:48:00
5:53 PM,32.0,26.1,79,30.25,9.0,SSW,9.2,-,0.00,Snow,Light Snow,200,2013-01-04 23:53:00
6:00 PM,33.8,26.6,75,30.19,10.0,SSW,10.4,-,N/A,,Overcast,200,2013-01-05 00:00:00
6:53 PM,33.1,23.0,66,30.25,10.0,SSW,18.4,-,N/A,,Overcast,210,2013-01-05 00:53:00
7:53 PM,33.1,23.0,66,30.23,10.0,SSW,13.8,-,N/A,,Overcast,210,2013-01-05 01:53:00
8:53 PM,32.0,23.0,69,30.22,10.0,SSW,15.0,-,N/A,,Overcast,210,2013-01-05 02:53:00
9:53 PM,32.0,23.0,69,30.19,10.0,SSW,17.3,-,N/A,,Overcast,210,2013-01-05 03:53:00
10:53 PM,30.9,21.9,69,30.18,10.0,SSW,18.4,26.5,N/A,,Overcast,200,2013-01-05 04:53:00
11:53 PM,30.9,23.0,72,30.17,10.0,SSW,18.4,-,N/A,,Mostly Cloudy,200,2013-01-05 05:53:00